Terminal Aerodrome Forecast
Issued by NWS

Home | Current Version | Previous Version | Text Only | Print | Product List | Glossary Off
Versions: 1 2 3 4 5 6 7 8 9 10 11 12 13 14 15 16 17 18 19

000
FTUS43 KBIS 231100
TAFMOT
TAF
KMOT 231140Z 2312/2412 14008KT P6SM SCT250
     FM232000 12013KT P6SM VCSH SCT080 OVC210
     FM240200 08007KT P6SM BKN080=

USA.gov is the U.S. government's official web portal to all federal, state and local government web resources and services.